Rushville, IL

6:24 PM CDT on March 30, 2017 (GMT -0500)
Camden | | Change Station

Elev 592 ft 40.15 °N, 90.77 °W | Updated 6 seconds ago

Overcast
Overcast
50.5 °F
Feels Like 50.5 °F
N
8.7
Wind Variable Wind from North
Gusts 9.8 mph

Today
High -- | Low -- °F
--% Chance of Precip.
Yesterday
High -- | Low -- °F
Precip. -- in
Pressure 29.58 in
Visibility 3.0 miles
Clouds Overcast 300 ft
Dew Point 50 °F
Humidity 99%
Rainfall 1.04 in
Snow Depth Not available.
6:48 AM 7:24 PM
Waxing Crescent, 11% visible
METAR KMQB 302315Z AUTO 01012KT 3SM -RA OVC003 08/08 A2958 RMK AO2 T00760076
Pressure 29.58 in
Visibility 3.0 miles
Clouds Overcast 300 ft
Dew Point 50 °F
Humidity 99%
Rainfall 1.04 in
Snow Depth Not available.
6:48 AM 7:24 PM
Waxing Crescent, 11% visible
METAR KMQB 302315Z AUTO 01012KT 3SM -RA OVC003 08/08 A2958 RMK AO2 T00760076

Get Severe Weather Alerts

Thanks for signing up!

Be on the lookout for a verification email in your inbox.

You'll start receiving the daily forecast at 8 AM.

×

10-Day Weather Forecast

Almanac

Astronomy

Mar. 30, 2017 Rise Set
Actual Time
Civil Twilight
Nautical Twilight
Astronomical Twilight
Moon
Length of Visible Light
Length of Day
Tomorrow will be .
, % of the Moon is Illuminated

Today's Extremes

State Highs State Lows

Community

WunderPhotos

Upload Photos

1,962,540 photos uploaded!

WunderBlog® & News

Nearby

Air Quality

  Air Quality AQ Index Pollutant
Not available.

Snow Depth

Station Depth Elevation

Earthquake Activity

City Distance Mag. Time & Date
Minimum magnitude displayed is 2.5.

Earthquake Activity

City Distance Mag. Time & Date
Minimum magnitude displayed is 2.5.

Coastal Water Temperatures

Place Temperature

Stations

Nearby Weather Stations

Station Location Temp. Windchill Dew Point Humidity Wind Precip. Elev Updated Type
                   

Watches & Warnings

There are currently no watches in effect.